Time;durP1;ratioP1;P1;durP2;ratioP2;P2;SDS_P1;SDS_P2;PMS_P1;PMS_P2;Temp;Humidity;BMP_temperature;BMP_pressure;BME280_temperature;BME280_humidity;BME280_pressure;Samples;Min_cycle;Max_cycle;Signal;HPM_P1;HPM_P2
2022/11/03 00:00:54;;;;;;;13.32;3.17;;;11.10;99.90;;;;;;4985456;28;20042;-82
2022/11/03 00:03:19;;;;;;;25.13;3.88;;;11.20;99.90;;;;;;4982939;28;20038;-82
2022/11/03 00:06:03;;;;;;;15.63;2.72;;;11.20;99.90;;;;;;4985399;28;20030;-81
2022/11/03 00:08:30;;;;;;;12.80;2.78;;;11.20;99.90;;;;;;4975846;28;20105;-83
2022/11/03 00:11:10;;;;;;;18.60;3.63;;;11.20;99.90;;;;;;4982954;28;20066;-78
2022/11/03 00:13:38;;;;;;;8.02;1.80;;;11.20;99.90;;;;;;4979236;28;20130;-81
2022/11/03 00:16:05;;;;;;;9.57;2.83;;;11.20;99.90;;;;;;4980008;28;20123;-79
2022/11/03 00:18:30;;;;;;;11.43;2.60;;;11.20;99.90;;;;;;4970940;28;20047;-80
2022/11/03 00:21:01;;;;;;;13.05;2.65;;;11.20;99.90;;;;;;4958461;28;20126;-81
2022/11/03 00:23:29;;;;;;;9.77;2.60;;;11.10;99.90;;;;;;4982608;28;20047;-81
2022/11/03 00:26:02;;;;;;;15.55;3.25;;;11.20;99.90;;;;;;4971958;28;20434;-80
2022/11/03 00:28:31;;;;;;;14.70;2.13;;;11.10;99.90;;;;;;4988267;28;20049;-78
2022/11/03 00:30:56;;;;;;;13.43;2.88;;;11.20;99.90;;;;;;4980132;28;20069;-79
2022/11/03 00:33:25;;;;;;;10.77;2.20;;;11.20;99.90;;;;;;4960468;28;20555;-81
2022/11/03 00:36:00;;;;;;;12.15;2.38;;;11.10;99.90;;;;;;4978813;28;20042;-81
2022/11/03 00:38:26;;;;;;;11.75;3.10;;;11.10;99.90;;;;;;4982331;28;20052;-82
2022/11/03 00:40:55;;;;;;;14.43;2.88;;;11.10;99.90;;;;;;4978670;28;20030;-82
2022/11/03 00:43:22;;;;;;;13.45;2.08;;;11.20;99.90;;;;;;4982154;28;20440;-81
2022/11/03 00:45:48;;;;;;;14.75;2.80;;;11.10;99.90;;;;;;4976673;28;20038;-82
2022/11/03 00:48:29;;;;;;;12.02;1.80;;;11.20;99.90;;;;;;4984041;28;20043;-80
2022/11/03 00:51:07;;;;;;;8.20;2.20;;;11.20;99.90;;;;;;4976415;28;20097;-81
2022/11/03 00:53:36;;;;;;;18.33;3.17;;;11.20;99.90;;;;;;4981740;28;20066;-80
2022/11/03 00:56:02;;;;;;;10.27;2.60;;;11.10;99.90;;;;;;4977392;28;20046;-81
2022/11/03 00:58:28;;;;;;;16.35;4.00;;;11.10;99.90;;;;;;4983672;28;20038;-80
2022/11/03 01:01:01;;;;;;;8.68;2.47;;;11.10;99.90;;;;;;4981065;28;20053;-83
2022/11/03 01:03:26;;;;;;;12.00;2.83;;;11.10;99.90;;;;;;4982384;28;20045;-82
2022/11/03 01:08:37;;;;;;;15.30;2.85;;;11.00;99.90;;;;;;4979991;28;20046;-77
2022/11/03 01:13:50;;;;;;;18.70;3.53;;;10.90;99.90;;;;;;4978023;28;20042;-78
2022/11/03 01:16:15;;;;;;;15.77;2.17;;;10.90;99.90;;;;;;4984310;28;20041;-82
2022/11/03 01:18:41;;;;;;;10.30;2.05;;;10.80;99.90;;;;;;4982567;28;20502;-81
2022/11/03 01:21:06;;;;;;;13.60;3.35;;;10.90;99.90;;;;;;4988704;28;20038;-79
2022/11/03 01:23:34;;;;;;;17.05;3.35;;;10.80;99.90;;;;;;4982241;28;20428;-82
2022/11/03 01:26:04;;;;;;;13.90;3.30;;;10.80;99.90;;;;;;4982226;28;20461;-80
2022/11/03 01:28:32;;;;;;;9.55;2.33;;;10.70;99.90;;;;;;4974810;28;20109;-81
2022/11/03 01:31:03;;;;;;;14.32;3.17;;;10.70;99.90;;;;;;4984734;28;20074;-80
2022/11/03 01:33:28;;;;;;;14.13;3.13;;;10.70;99.90;;;;;;4989173;28;20073;-81
2022/11/03 01:35:54;;;;;;;10.68;3.15;;;10.70;99.90;;;;;;4990189;28;20046;-81
2022/11/03 01:38:20;;;;;;;13.63;3.40;;;10.70;99.90;;;;;;4989546;28;20038;-75
2022/11/03 01:40:45;;;;;;;15.73;2.22;;;10.60;99.90;;;;;;4978116;28;20053;-82
2022/11/03 01:43:16;;;;;;;17.73;3.00;;;10.60;99.90;;;;;;4978300;28;20078;-80
2022/11/03 01:45:43;;;;;;;8.07;2.13;;;10.60;99.90;;;;;;4988923;28;20392;-82
2022/11/03 01:48:10;;;;;;;13.52;3.10;;;10.60;99.90;;;;;;4981309;28;20049;-81
2022/11/03 01:50:37;;;;;;;12.40;2.67;;;10.60;99.90;;;;;;4981994;28;20093;-78
2022/11/03 01:53:03;;;;;;;21.38;3.50;;;10.50;99.90;;;;;;4979657;28;20043;-78
2022/11/03 01:55:35;;;;;;;9.45;2.92;;;10.50;99.90;;;;;;4987943;28;20367;-81
2022/11/03 01:58:13;;;;;;;18.45;2.78;;;10.40;99.90;;;;;;4991050;28;20057;-80
2022/11/03 02:00:42;;;;;;;20.60;4.85;;;10.40;99.90;;;;;;4977043;28;20040;-81
2022/11/03 02:03:09;;;;;;;10.00;4.23;;;10.40;99.90;;;;;;4982434;28;20339;-82
2022/11/03 02:05:36;;;;;;;12.40;2.30;;;10.40;99.90;;;;;;5074926;23;20033;-75
2022/11/03 02:08:12;;;;;;;8.80;2.53;;;10.40;99.90;;;;;;4977695;28;20553;-73
2022/11/03 02:10:38;;;;;;;15.65;4.13;;;10.40;99.90;;;;;;4958781;28;20090;-73
2022/11/03 02:13:27;;;;;;;13.98;3.13;;;10.40;99.90;;;;;;4968823;28;20050;-73
2022/11/03 02:15:57;;;;;;;18.38;3.70;;;10.50;99.90;;;;;;4967100;28;20058;-73
2022/11/03 02:18:32;;;;;;;46.45;4.18;;;10.50;99.90;;;;;;4968784;28;20085;-73
2022/11/03 02:21:22;;;;;;;12.13;2.55;;;10.50;99.90;;;;;;4959724;28;20170;-73
2022/11/03 02:23:59;;;;;;;10.75;2.05;;;10.50;99.90;;;;;;4962124;28;20110;-74
2022/11/03 02:26:26;;;;;;;16.60;3.80;;;10.50;99.90;;;;;;4967568;28;21012;-73
2022/11/03 02:28:52;;;;;;;19.35;3.38;;;10.50;99.90;;;;;;4963492;28;20035;-73
2022/11/03 02:31:31;;;;;;;10.30;2.60;;;10.50;99.90;;;;;;4958606;28;20050;-73
2022/11/03 02:34:18;;;;;;;11.77;2.63;;;10.50;99.90;;;;;;4965627;28;20055;-74
2022/11/03 02:36:55;;;;;;;17.05;4.30;;;10.50;99.90;;;;;;4952684;28;20398;-72
2022/11/03 02:39:34;;;;;;;13.73;3.38;;;10.50;99.90;;;;;;4952425;28;22552;-73
2022/11/03 02:42:02;;;;;;;15.93;3.88;;;10.50;99.90;;;;;;4957995;28;20590;-73
2022/11/03 02:44:28;;;;;;;13.70;3.20;;;10.40;99.90;;;;;;4958237;28;20046;-72
2022/11/03 02:46:59;;;;;;;8.82;2.25;;;10.50;99.90;;;;;;4952200;28;20151;-73
2022/11/03 02:49:25;;;;;;;8.85;2.58;;;10.40;99.90;;;;;;4960460;28;20050;-73
2022/11/03 02:52:02;;;;;;;42.28;4.35;;;10.50;99.90;;;;;;4947787;28;20121;-73
2022/11/03 02:54:34;;;;;;;15.52;3.47;;;10.40;99.90;;;;;;4960112;28;20070;-74
2022/11/03 02:57:20;;;;;;;6.65;2.22;;;10.40;99.90;;;;;;4960722;28;20085;-72
2022/11/03 02:59:54;;;;;;;12.40;2.60;;;10.40;99.90;;;;;;4952528;28;20114;-72
2022/11/03 03:02:26;;;;;;;13.43;3.45;;;10.40;99.90;;;;;;4955141;28;20046;-72
2022/11/03 03:05:00;;;;;;;15.85;3.42;;;10.40;99.90;;;;;;4968537;28;20102;-73
2022/11/03 03:07:31;;;;;;;12.48;3.15;;;10.40;99.90;;;;;;4959467;28;20071;-72
2022/11/03 03:10:11;;;;;;;16.25;3.63;;;10.40;99.90;;;;;;4962759;28;20605;-74
2022/11/03 03:12:42;;;;;;;16.23;4.78;;;10.40;99.90;;;;;;4952367;28;20366;-73
2022/11/03 03:15:08;;;;;;;13.80;3.40;;;10.40;99.90;;;;;;4959360;28;20053;-75
2022/11/03 03:17:45;;;;;;;12.38;3.33;;;10.40;99.90;;;;;;4959868;28;20114;-73
2022/11/03 03:20:18;;;;;;;17.58;4.00;;;10.40;99.90;;;;;;4952002;28;20098;-73
2022/11/03 03:22:55;;;;;;;16.13;1.80;;;10.40;99.90;;;;;;4955381;28;20037;-73
2022/11/03 03:25:24;;;;;;;13.18;3.25;;;10.40;99.90;;;;;;4967421;28;20126;-74
2022/11/03 03:27:56;;;;;;;29.00;4.22;;;10.40;99.90;;;;;;4968513;28;20109;-74
2022/11/03 03:30:21;;;;;;;17.10;3.13;;;10.40;99.90;;;;;;4965738;28;20093;-72
2022/11/03 03:32:49;;;;;;;16.83;3.22;;;10.40;99.90;;;;;;4951809;28;20466;-74
2022/11/03 03:35:22;;;;;;;13.85;3.53;;;10.30;99.90;;;;;;4958940;28;20050;-72
2022/11/03 03:37:52;;;;;;;16.38;3.10;;;10.30;99.90;;;;;;4965344;28;20049;-73
2022/11/03 03:40:27;;;;;;;16.42;4.70;;;10.30;99.90;;;;;;4956171;28;20091;-74
2022/11/03 03:42:53;;;;;;;13.73;2.83;;;10.30;99.90;;;;;;4957502;28;20042;-73
2022/11/03 03:45:19;;;;;;;22.08;4.00;;;10.30;99.90;;;;;;4959966;28;20054;-73
2022/11/03 03:47:46;;;;;;;14.02;3.28;;;10.20;99.90;;;;;;4955282;28;20050;-73
2022/11/03 03:50:12;;;;;;;23.27;4.53;;;10.30;99.90;;;;;;4960514;28;20336;-73
2022/11/03 03:52:38;;;;;;;10.02;1.80;;;10.30;99.90;;;;;;4961995;28;20053;-72
2022/11/03 03:55:11;;;;;;;13.63;2.97;;;10.20;99.90;;;;;;4958660;28;20126;-73
2022/11/03 03:57:37;;;;;;;17.45;3.00;;;10.30;99.90;;;;;;4964217;28;20051;-73
2022/11/03 04:00:03;;;;;;;16.92;4.82;;;10.30;99.90;;;;;;4968360;28;20042;-73
2022/11/03 04:02:29;;;;;;;13.10;2.30;;;10.30;99.90;;;;;;4952911;28;20043;-73
2022/11/03 04:04:54;;;;;;;12.10;3.42;;;10.30;99.90;;;;;;4952161;28;20061;-73
2022/11/03 04:10:05;;;;;;;20.63;3.92;;;10.30;99.90;;;;;;4955174;28;20459;-72
2022/11/03 04:23:28;;;;;;;20.42;4.90;;;10.50;99.90;;;;;;4968389;28;20057;-72
2022/11/03 04:25:55;;;;;;;11.27;3.20;;;10.50;99.90;;;;;;4959282;28;20397;-72
2022/11/03 04:28:21;;;;;;;11.60;2.83;;;10.60;99.90;;;;;;4951030;28;20047;-72
2022/11/03 04:30:47;;;;;;;9.27;2.75;;;10.60;99.90;;;;;;4952281;28;20058;-73
2022/11/03 04:33:15;;;;;;;12.63;5.03;;;10.60;99.90;;;;;;4954013;28;20405;-72
2022/11/03 04:35:45;;;;;;;13.40;3.50;;;10.60;99.90;;;;;;4966290;28;20050;-72
2022/11/03 04:38:14;;;;;;;12.35;2.58;;;10.70;99.90;;;;;;4948608;28;20097;-73
2022/11/03 04:40:54;;;;;;;15.90;3.60;;;10.60;99.90;;;;;;4946840;29;20050;-73
2022/11/03 04:43:21;;;;;;;;;;;10.70;99.90;;;;;;4953186;28;20047;-73
2022/11/03 04:45:47;;;;;;;12.40;3.58;;;10.60;99.90;;;;;;4961911;28;19926;-73
2022/11/03 04:48:23;;;;;;;16.13;2.60;;;10.60;99.90;;;;;;4952343;28;20047;-73
2022/11/03 04:50:53;;;;;;;17.48;3.25;;;10.70;99.90;;;;;;4956477;28;20100;-72
2022/11/03 04:53:20;;;;;;;13.38;3.00;;;10.60;99.90;;;;;;4957838;28;20051;-73
2022/11/03 04:55:49;;;;;;;8.25;1.90;;;10.60;99.90;;;;;;4959409;28;20107;-73
2022/11/03 04:58:41;;;;;;;23.30;3.80;;;10.60;99.90;;;;;;4956597;28;20577;-73
2022/11/03 05:01:11;;;;;;;6.90;2.40;;;10.60;99.90;;;;;;4950987;28;20074;-72
2022/11/03 05:03:39;;;;;;;10.75;3.20;;;10.60;99.90;;;;;;4958794;28;20039;-72
2022/11/03 05:06:26;;;;;;;14.50;4.07;;;10.70;99.90;;;;;;4954393;28;20142;-74
2022/11/03 05:08:57;;;;;;;12.18;3.22;;;10.70;99.90;;;;;;4952665;28;20035;-72
2022/11/03 05:11:31;;;;;;;;;;;10.70;99.90;;;;;;4967710;28;20038;-73
2022/11/03 05:14:03;;;;;;;13.60;3.33;;;10.70;99.90;;;;;;4957848;28;19930;-73
2022/11/03 05:16:30;;;;;;;8.68;2.63;;;10.70;99.90;;;;;;4961872;28;20600;-72
2022/11/03 05:18:56;;;;;;;14.65;2.50;;;10.70;99.90;;;;;;4950130;28;20054;-75
2022/11/03 05:21:24;;;;;;;8.18;2.53;;;10.70;99.90;;;;;;4960037;28;20482;-73
2022/11/03 05:23:56;;;;;;;10.82;1.83;;;10.70;99.90;;;;;;4949604;28;20093;-72
2022/11/03 05:26:27;;;;;;;9.50;2.60;;;10.70;99.90;;;;;;4957692;28;20067;-72
2022/11/03 05:29:15;;;;;;;12.38;3.75;;;10.70;99.90;;;;;;4956024;28;20479;-72
2022/11/03 05:31:42;;;;;;;11.80;3.00;;;10.70;99.90;;;;;;4939042;28;20051;-73
2022/11/03 05:34:31;;;;;;;9.65;2.55;;;10.70;99.90;;;;;;4964577;28;20378;-73
2022/11/03 05:37:06;;;;;;;10.63;2.90;;;10.70;99.90;;;;;;4953975;28;20058;-72
2022/11/03 05:39:39;;;;;;;10.45;2.28;;;10.70;99.90;;;;;;4955968;28;20039;-73
2022/11/03 05:42:22;;;;;;;10.65;2.58;;;10.70;99.90;;;;;;4944000;28;20046;-72
2022/11/03 05:44:50;;;;;;;9.88;2.70;;;10.60;99.90;;;;;;4958320;28;20126;-72
2022/11/03 05:47:35;;;;;;;12.07;2.78;;;10.60;99.90;;;;;;4939022;28;20047;-73
2022/11/03 05:50:20;;;;;;;10.85;2.72;;;10.60;99.90;;;;;;4967189;28;20046;-73
2022/11/03 05:52:47;;;;;;;13.82;4.22;;;10.60;99.90;;;;;;4968236;28;20047;-75
2022/11/03 05:55:26;;;;;;;14.98;3.35;;;10.70;99.90;;;;;;4952804;28;20151;-73
2022/11/03 05:57:54;;;;;;;9.63;2.47;;;10.60;99.90;;;;;;4958096;28;20062;-73
2022/11/03 06:00:38;;;;;;;11.13;2.45;;;10.60;99.90;;;;;;4959374;28;20043;-74
2022/11/03 06:03:05;;;;;;;9.32;3.15;;;10.60;99.90;;;;;;4966364;28;20074;-72
2022/11/03 06:05:35;;;;;;;17.63;3.67;;;10.60;99.90;;;;;;4967600;28;20046;-72
2022/11/03 06:08:09;;;;;;;9.15;2.45;;;10.70;99.90;;;;;;4960277;28;20149;-72
2022/11/03 06:10:40;;;;;;;13.82;3.13;;;10.70;99.90;;;;;;4953512;28;20821;-72
2022/11/03 06:13:29;;;;;;;8.82;2.83;;;10.70;99.90;;;;;;4951695;28;20050;-73
2022/11/03 06:16:00;;;;;;;13.88;3.10;;;10.70;99.90;;;;;;4960200;28;20061;-73
2022/11/03 06:18:29;;;;;;;;;;;10.70;99.90;;;;;;4964951;28;20058;-72
2022/11/03 06:21:06;;;;;;;13.23;3.57;;;10.70;99.90;;;;;;4971955;28;20265;-72
2022/11/03 06:23:33;;;;;;;10.80;1.92;;;10.70;99.90;;;;;;4954286;28;20833;-72
2022/11/03 06:26:01;;;;;;;9.10;2.33;;;10.80;99.90;;;;;;4971820;28;20269;-72
2022/11/03 06:28:33;;;;;;;12.38;3.17;;;10.70;99.90;;;;;;4970321;28;20043;-73
2022/11/03 06:30:59;;;;;;;11.32;2.63;;;10.70;99.90;;;;;;4952205;28;20055;-72
2022/11/03 06:33:32;;;;;;;18.27;4.57;;;10.70;99.90;;;;;;4969322;28;20038;-73
2022/11/03 06:36:09;;;;;;;8.98;2.92;;;10.70;99.90;;;;;;4971603;28;20130;-73
2022/11/03 06:38:34;;;;;;;8.82;1.65;;;10.70;99.90;;;;;;4963618;28;20075;-73
2022/11/03 06:41:00;;;;;;;11.85;2.80;;;10.70;99.90;;;;;;4965081;28;20140;-71
2022/11/03 06:43:37;;;;;;;10.88;2.50;;;10.60;99.90;;;;;;4976821;28;20082;-72
2022/11/03 06:46:19;;;;;;;17.80;3.15;;;10.60;99.90;;;;;;4950182;28;20043;-72
2022/11/03 06:48:44;;;;;;;11.30;3.63;;;10.60;99.90;;;;;;4978754;28;20051;-73
2022/11/03 06:51:36;;;;;;;12.50;2.90;;;10.70;99.90;;;;;;4969732;28;20135;-72
2022/11/03 06:54:08;;;;;;;25.60;5.28;;;10.60;99.90;;;;;;4965833;28;20055;-72
2022/11/03 06:56:36;;;;;;;11.90;2.17;;;10.70;99.90;;;;;;4971893;28;20039;-73
2022/11/03 06:59:02;;;;;;;11.77;3.53;;;10.70;99.90;;;;;;4958514;28;20050;-72
2022/11/03 07:01:32;;;;;;;13.65;3.53;;;10.70;99.90;;;;;;4959064;28;20038;-73
2022/11/03 07:04:03;;;;;;;12.82;5.25;;;10.70;99.90;;;;;;4960564;28;20047;-73
2022/11/03 07:06:33;;;;;;;11.57;3.05;;;10.70;99.90;;;;;;4939357;28;20055;-72
2022/11/03 07:09:00;;;;;;;19.30;4.85;;;10.80;99.90;;;;;;4966404;28;20049;-72
2022/11/03 07:11:29;;;;;;;7.15;2.53;;;10.80;99.90;;;;;;4953943;28;20147;-73
2022/11/03 07:14:17;;;;;;;14.65;3.28;;;10.80;99.90;;;;;;4961026;28;20059;-72
2022/11/03 07:16:44;;;;;;;8.90;2.22;;;10.80;99.90;;;;;;4964572;28;20059;-72
2022/11/03 07:19:17;;;;;;;7.07;2.22;;;10.80;99.90;;;;;;4951490;28;20047;-72
2022/11/03 07:21:49;;;;;;;10.73;3.50;;;10.90;99.90;;;;;;4950480;28;20077;-72
2022/11/03 07:24:22;;;;;;;14.20;3.45;;;10.90;99.90;;;;;;4948886;28;20090;-71
2022/11/03 07:27:13;;;;;;;11.27;2.15;;;10.90;99.90;;;;;;4950318;28;20098;-72
2022/11/03 07:29:40;;;;;;;8.18;3.47;;;10.90;99.90;;;;;;4939070;28;20059;-74
2022/11/03 07:32:30;;;;;;;12.77;3.13;;;10.90;99.90;;;;;;4950822;28;20142;-72
2022/11/03 07:35:08;;;;;;;9.27;2.83;;;10.90;99.90;;;;;;4951224;28;20125;-72
2022/11/03 07:37:34;;;;;;;13.98;3.17;;;11.00;99.90;;;;;;4962830;28;20054;-71
2022/11/03 07:40:00;;;;;;;10.60;2.40;;;11.10;99.90;;;;;;4958456;28;20039;-72
2022/11/03 07:42:27;;;;;;;16.83;3.22;;;11.10;99.90;;;;;;4952541;28;20074;-73
2022/11/03 07:44:55;;;;;;;12.27;2.53;;;11.20;99.90;;;;;;4968681;28;20109;-73
2022/11/03 07:47:26;;;;;;;12.30;2.72;;;11.20;99.90;;;;;;4968296;28;20082;-73
2022/11/03 07:49:53;;;;;;;12.15;3.17;;;11.20;99.90;;;;;;4967158;28;20046;-72
2022/11/03 07:52:23;;;;;;;9.38;2.95;;;11.30;99.90;;;;;;4968208;28;20125;-73
2022/11/03 07:54:50;;;;;;;11.03;2.63;;;11.30;99.90;;;;;;4945190;28;20042;-74
2022/11/03 07:57:25;;;;;;;13.57;3.60;;;11.30;99.90;;;;;;4946860;28;20450;-72
2022/11/03 08:00:00;;;;;;;12.52;3.15;;;11.30;99.90;;;;;;4965603;28;20053;-72
2022/11/03 08:02:38;;;;;;;8.15;2.00;;;11.40;99.90;;;;;;4960984;28;20688;-73
2022/11/03 08:05:04;;;;;;;12.77;2.83;;;11.40;99.90;;;;;;4952457;28;20042;-72
2022/11/03 08:07:31;;;;;;;10.80;2.30;;;11.40;99.90;;;;;;4962625;28;20062;-72
2022/11/03 08:09:57;;;;;;;13.50;3.50;;;11.50;99.90;;;;;;4953738;28;20090;-71
2022/11/03 08:12:23;;;;;;;12.45;3.08;;;11.50;99.90;;;;;;4933496;29;20058;-72
2022/11/03 08:14:49;;;;;;;7.95;2.28;;;11.50;99.90;;;;;;4956888;28;20043;-72
2022/11/03 08:17:14;;;;;;;7.40;3.88;;;11.50;99.90;;;;;;4965300;28;20402;-72
2022/11/03 08:19:40;;;;;;;10.10;2.80;;;11.70;99.90;;;;;;4951507;28;20137;-71
2022/11/03 08:22:06;;;;;;;9.10;1.83;;;11.80;99.90;;;;;;4951351;28;20093;-71
2022/11/03 08:24:32;;;;;;;13.45;2.58;;;11.80;99.90;;;;;;4951538;28;20042;-70
2022/11/03 08:26:58;;;;;;;11.45;2.47;;;11.90;99.90;;;;;;4953892;28;20090;-71
2022/11/03 08:29:26;;;;;;;10.10;2.58;;;11.90;99.90;;;;;;4955429;28;20050;-72
2022/11/03 08:31:52;;;;;;;15.77;4.10;;;11.90;99.90;;;;;;4951251;28;20043;-72
2022/11/03 08:34:18;;;;;;;10.75;2.95;;;12.00;99.90;;;;;;4936751;28;20494;-71
2022/11/03 08:36:44;;;;;;;11.73;2.47;;;12.00;99.90;;;;;;4957739;28;20043;-70
2022/11/03 08:39:10;;;;;;;12.95;2.33;;;12.00;99.90;;;;;;4963339;28;20065;-71
2022/11/03 08:41:36;;;;;;;12.95;2.35;;;12.00;99.90;;;;;;4948932;28;20532;-71
2022/11/03 08:44:01;;;;;;;13.50;2.83;;;12.10;99.90;;;;;;4949293;29;20535;-71
2022/11/03 08:46:27;;;;;;;9.88;2.85;;;12.10;99.90;;;;;;4959374;28;20109;-72
2022/11/03 08:48:53;;;;;;;13.07;4.18;;;12.10;99.90;;;;;;4949980;28;20051;-71
2022/11/03 08:51:19;;;;;;;14.43;4.13;;;12.10;99.90;;;;;;4958193;28;20102;-73
2022/11/03 08:53:45;;;;;;;14.93;2.20;;;12.20;99.90;;;;;;4948657;29;20075;-72
2022/11/03 08:56:11;;;;;;;7.90;2.20;;;12.10;99.90;;;;;;4948506;28;20135;-72
2022/11/03 08:58:38;;;;;;;15.05;2.65;;;12.10;99.90;;;;;;4964341;28;20390;-72
2022/11/03 09:01:04;;;;;;;14.07;3.03;;;12.20;99.90;;;;;;4945720;28;20054;-73
2022/11/03 09:03:29;;;;;;;14.18;2.47;;;12.20;99.90;;;;;;4934947;28;20034;-72
2022/11/03 09:05:55;;;;;;;15.57;3.17;;;12.20;99.90;;;;;;4954929;28;20748;-72
2022/11/03 09:08:21;;;;;;;8.65;2.13;;;12.30;99.90;;;;;;4967165;28;20826;-72
2022/11/03 09:10:47;;;;;;;10.35;2.95;;;12.30;99.90;;;;;;4965927;28;20034;-72
2022/11/03 09:13:12;;;;;;;11.77;3.28;;;12.40;99.90;;;;;;4954560;28;20113;-73
2022/11/03 09:15:38;;;;;;;9.57;2.33;;;12.40;99.90;;;;;;4946568;29;20505;-73
2022/11/03 09:18:04;;;;;;;6.60;1.73;;;12.50;99.90;;;;;;4932776;28;20434;-72
2022/11/03 09:20:30;;;;;;;12.90;3.17;;;12.50;99.90;;;;;;4980039;28;20058;-72
2022/11/03 09:22:56;;;;;;;11.43;3.08;;;12.50;99.90;;;;;;4948750;29;20495;-74
2022/11/03 09:25:21;;;;;;;21.70;4.13;;;12.60;99.90;;;;;;4947450;29;20051;-72
2022/11/03 09:27:47;;;;;;;9.70;2.50;;;12.60;99.90;;;;;;4931049;29;20044;-72
2022/11/03 09:30:13;;;;;;;8.05;2.40;;;12.70;99.90;;;;;;4946080;28;20047;-72
2022/11/03 09:32:39;;;;;;;8.23;2.72;;;12.70;99.90;;;;;;4948827;28;20062;-74
2022/11/03 09:35:06;;;;;;;9.95;1.98;;;12.70;99.90;;;;;;4964179;28;20035;-72
2022/11/03 09:37:32;;;;;;;12.88;2.50;;;12.80;99.90;;;;;;4947836;29;20055;-72
2022/11/03 09:39:58;;;;;;;11.70;1.98;;;12.90;99.90;;;;;;4947203;28;20065;-72
2022/11/03 09:42:24;;;;;;;11.45;2.63;;;12.90;99.90;;;;;;4950344;29;20055;-71
2022/11/03 09:44:52;;;;;;;10.48;1.90;;;13.00;99.90;;;;;;4967078;28;20043;-71
2022/11/03 09:47:31;;;;;;;14.55;3.80;;;13.00;99.90;;;;;;4968390;28;20401;-74
2022/11/03 09:49:57;;;;;;;14.20;3.17;;;13.10;99.90;;;;;;4954022;28;20051;-72
2022/11/03 09:52:23;;;;;;;5.90;2.00;;;13.10;99.90;;;;;;4970513;28;20101;-72
2022/11/03 09:54:51;;;;;;;7.78;2.55;;;13.20;99.90;;;;;;4969839;28;20070;-71
2022/11/03 09:57:17;;;;;;;10.27;3.05;;;13.20;99.90;;;;;;4970560;28;20043;-73
2022/11/03 09:59:47;;;;;;;7.68;2.10;;;13.20;99.90;;;;;;4968836;28;20034;-71
2022/11/03 10:02:35;;;;;;;14.30;2.90;;;13.20;99.90;;;;;;4956131;28;20059;-72
2022/11/03 10:05:01;;;;;;;6.32;2.42;;;13.30;99.90;;;;;;4951346;29;20055;-71
2022/11/03 10:07:29;;;;;;;13.40;3.70;;;13.30;99.90;;;;;;4934820;29;20142;-71
2022/11/03 10:09:57;;;;;;;7.70;2.47;;;13.30;99.90;;;;;;4950629;29;20051;-74
2022/11/03 10:12:24;;;;;;;11.48;2.70;;;13.30;99.90;;;;;;4951011;29;20090;-71
2022/11/03 10:14:51;;;;;;;10.57;2.50;;;13.30;99.90;;;;;;4958393;28;20055;-73
2022/11/03 10:17:19;;;;;;;8.52;2.13;;;13.40;99.90;;;;;;4971316;28;20612;-73
2022/11/03 10:19:51;;;;;;;8.85;2.30;;;13.30;99.90;;;;;;4970310;28;20058;-72
2022/11/03 10:22:21;;;;;;;12.73;3.35;;;13.40;99.90;;;;;;4972154;28;20054;-71
2022/11/03 10:24:47;;;;;;;8.00;3.03;;;13.40;99.90;;;;;;4971665;28;20065;-73
2022/11/03 10:27:21;;;;;;;14.20;2.90;;;13.40;99.90;;;;;;4972149;28;20039;-73
2022/11/03 10:30:06;;;;;;;6.18;2.60;;;13.50;99.90;;;;;;4969301;28;20378;-74
2022/11/03 10:32:35;;;;;;;13.90;3.53;;;13.50;99.90;;;;;;4954924;28;20049;-73
2022/11/03 10:35:03;;;;;;;13.88;3.38;;;13.50;99.90;;;;;;4952293;28;20125;-74
2022/11/03 10:37:29;;;;;;;12.82;2.85;;;13.50;99.90;;;;;;4934601;29;20043;-73
2022/11/03 10:39:59;;;;;;;6.40;2.10;;;13.50;99.90;;;;;;4966252;28;20041;-71
2022/11/03 10:42:29;;;;;;;13.57;3.92;;;13.70;99.90;;;;;;4950348;29;20438;-74
2022/11/03 10:45:16;;;;;;;12.00;2.50;;;13.70;99.90;;;;;;4963711;28;20429;-73
2022/11/03 10:47:42;;;;;;;10.43;3.33;;;13.70;99.90;;;;;;4950332;28;20358;-76
2022/11/03 10:50:34;;;;;;;12.13;2.22;;;13.80;99.90;;;;;;4950953;29;20054;-74
2022/11/03 10:53:00;;;;;;;8.38;2.92;;;13.80;99.90;;;;;;4946453;28;20055;-74
2022/11/03 10:55:26;;;;;;;7.38;2.08;;;13.90;99.90;;;;;;4960491;28;20570;-73
2022/11/03 10:57:56;;;;;;;10.48;2.70;;;13.90;99.90;;;;;;4964932;28;20050;-74
2022/11/03 11:00:23;;;;;;;12.95;2.58;;;14.00;99.90;;;;;;4966985;28;20039;-74
2022/11/03 11:02:50;;;;;;;6.10;1.67;;;14.00;99.90;;;;;;4970269;28;20130;-74
2022/11/03 11:05:21;;;;;;;15.73;3.95;;;14.00;99.90;;;;;;4970843;28;20078;-74
2022/11/03 11:07:52;;;;;;;9.75;2.33;;;14.10;99.90;;;;;;4970245;28;20065;-74
2022/11/03 11:10:22;;;;;;;15.63;4.60;;;14.10;99.90;;;;;;4969872;28;20494;-74
2022/11/03 11:13:17;;;;;;;13.60;4.20;;;14.10;99.90;;;;;;4967735;28;20122;-74
2022/11/03 11:15:50;;;;;;;10.13;2.92;;;14.10;99.90;;;;;;4968120;28;20050;-75
2022/11/03 11:18:26;;;;;;;12.25;2.75;;;14.20;99.90;;;;;;4953932;28;20051;-70
2022/11/03 11:20:52;;;;;;;11.98;2.85;;;14.20;99.90;;;;;;4969345;28;20109;-73
2022/11/03 11:23:30;;;;;;;18.75;3.63;;;14.30;99.90;;;;;;4969568;28;20046;-74
2022/11/03 11:26:07;;;;;;;9.27;2.72;;;14.40;99.90;;;;;;4950788;28;20444;-75
2022/11/03 11:28:37;;;;;;;9.70;3.38;;;14.50;99.90;;;;;;4950212;29;20051;-73
2022/11/03 11:31:21;;;;;;;8.30;2.03;;;14.60;99.90;;;;;;4951145;28;20054;-73
2022/11/03 11:33:48;;;;;;;8.50;2.28;;;14.60;99.90;;;;;;4968359;28;20086;-72
2022/11/03 11:36:22;;;;;;;8.10;2.08;;;14.60;99.90;;;;;;4952583;28;20049;-73
2022/11/03 11:38:48;;;;;;;9.90;2.03;;;14.60;99.90;;;;;;4951241;28;20098;-73
2022/11/03 11:41:14;;;;;;;7.95;2.13;;;14.60;99.90;;;;;;4968793;28;20460;-73
2022/11/03 11:43:39;;;;;;;4.78;1.73;;;14.60;99.90;;;;;;4969868;28;20130;-73
2022/11/03 11:46:38;;;;;;;5.85;2.42;;;14.60;99.90;;;;;;4984398;28;20100;-74
2022/11/03 11:49:04;;;;;;;9.82;3.08;;;14.60;99.90;;;;;;4970696;28;20047;-75
2022/11/03 11:51:34;;;;;;;11.30;2.80;;;14.60;99.90;;;;;;4948469;29;20047;-72
2022/11/03 11:54:05;;;;;;;7.95;2.00;;;14.50;99.90;;;;;;4949182;28;20054;-72
2022/11/03 11:56:31;;;;;;;8.32;1.77;;;14.50;99.90;;;;;;4950516;28;20470;-72
2022/11/03 11:58:57;;;;;;;9.63;1.80;;;14.50;99.90;;;;;;4950556;29;20179;-73
2022/11/03 12:01:32;;;;;;;6.47;2.00;;;14.50;99.90;;;;;;4949907;29;20087;-72
2022/11/03 12:04:13;;;;;;;8.30;2.30;;;14.50;99.90;;;;;;4964809;28;20039;-74
2022/11/03 12:06:40;;;;;;;9.80;3.15;;;14.50;99.90;;;;;;4949259;29;20146;-78
2022/11/03 12:09:15;;;;;;;8.20;2.20;;;14.50;99.90;;;;;;4949388;28;20115;-75
2022/11/03 12:11:52;;;;;;;10.48;1.67;;;14.50;99.90;;;;;;4949049;29;20050;-75
2022/11/03 12:14:23;;;;;;;5.30;1.52;;;14.50;99.90;;;;;;4950551;28;20642;-73
2022/11/03 12:16:49;;;;;;;14.30;3.72;;;14.50;99.90;;;;;;4948962;28;20039;-72
2022/11/03 12:19:35;;;;;;;7.30;2.80;;;14.50;99.90;;;;;;4949356;29;20042;-74
2022/11/03 12:22:02;;;;;;;11.13;2.03;;;14.50;99.90;;;;;;4966225;28;20438;-74
2022/11/03 12:24:31;;;;;;;7.97;2.35;;;14.50;99.90;;;;;;4949376;29;20098;-75
2022/11/03 12:26:58;;;;;;;10.57;2.78;;;14.50;99.90;;;;;;4961850;28;20043;-74
2022/11/03 12:29:24;;;;;;;7.90;1.85;;;14.50;99.90;;;;;;4950110;28;20083;-73
2022/11/03 12:31:50;;;;;;;9.65;2.47;;;14.60;99.90;;;;;;4963333;28;20086;-71
2022/11/03 12:34:16;;;;;;;8.52;2.53;;;14.60;99.90;;;;;;4949020;29;20406;-73
2022/11/03 12:36:43;;;;;;;6.75;2.60;;;14.60;99.90;;;;;;4949906;28;20047;-74
2022/11/03 12:39:08;;;;;;;5.53;1.92;;;14.60;99.90;;;;;;4950622;28;20047;-75
2022/11/03 12:41:34;;;;;;;4.35;2.00;;;14.60;99.90;;;;;;4950647;29;20047;-75
2022/11/03 12:44:00;;;;;;;5.68;1.50;;;14.60;99.90;;;;;;4932556;29;20109;-75
2022/11/03 12:46:26;;;;;;;7.80;2.30;;;14.60;99.90;;;;;;4949068;29;20043;-75
2022/11/03 12:48:51;;;;;;;10.20;1.75;;;14.70;99.90;;;;;;4948886;29;20082;-74
2022/11/03 12:51:19;;;;;;;9.60;1.88;;;14.60;99.90;;;;;;4950114;28;20450;-74
2022/11/03 12:53:45;;;;;;;4.75;2.35;;;14.60;99.90;;;;;;4951950;28;20078;-76
2022/11/03 12:56:12;;;;;;;5.28;2.13;;;14.60;99.90;;;;;;4950776;28;20035;-75
2022/11/03 12:58:38;;;;;;;11.82;2.60;;;14.60;99.90;;;;;;4949602;28;20043;-74
2022/11/03 13:01:05;;;;;;;9.15;2.65;;;14.70;99.90;;;;;;4949698;28;20043;-75
2022/11/03 13:03:31;;;;;;;8.20;2.17;;;14.70;99.90;;;;;;4981637;28;20142;-76
2022/11/03 13:05:57;;;;;;;7.13;2.75;;;14.70;99.90;;;;;;4949662;28;20066;-76
2022/11/03 13:08:24;;;;;;;9.85;2.60;;;14.80;99.90;;;;;;4959546;28;20418;-74
2022/11/03 13:10:50;;;;;;;8.40;1.65;;;14.70;99.90;;;;;;4968157;28;20383;-72
2022/11/03 13:13:16;;;;;;;6.18;1.60;;;14.70;99.90;;;;;;4969464;28;20043;-76
2022/11/03 13:15:42;;;;;;;11.82;1.83;;;14.80;99.90;;;;;;4969451;28;20101;-73